San Miguel (591) Station Data

Red Flag Warning: No
Fire Weather Zone: 250
SDGE Region: Metro
Lat/Lon: 32.685/-116.98

Observations

Time Wind Speed/Gust Temp(F) RH Fuel Moist Fuel Temp(F) Dewpt(F) Tmax(F) Tmin(F) Accum Precip 10-min Precip SL Press(mb)
3/29 8:00am 41 1 G 2 60° 37% - - 34° 61° 53.4° - - 1018.0
3/29 7:50am 88 2 G 4 60° 33% - - 31° 60.9° 53.4° - - 1017.0
3/29 7:40am 47 3 G 4 58° 35% - - 31° 59.9° 53.4° - - 1017.0
3/29 7:30am 46 5 G 7 56° 41% - - 33° 59.9° 53.4° - - 1017.0
3/29 7:20am 316 1 G 3 56° 45% - - 35° 59.9° 53.4° - - 1017.0
3/29 7:10am 89 3 G 5 59° 38% - - 33° 59.9° 53.4° - - 1017.0
3/29 7:00am 144 3 G 5 57° 40% - - 33° 59.9° 53.4° - - 1017.0
3/29 6:50am 348 1 G 3 58° 38% - - 32° 59.9° 53.4° - - 1017.0
3/29 6:40am 124 2 G 4 56° 45% - - 35° 59.9° 53.4° - - 1017.0
3/29 6:30am 46 3 G 5 56° 44% - - 35° 59.9° 53.4° - - 1017.0
3/29 6:20am 22 1 G 5 54° 50% - - 36° 59.9° 53.4° - - 1017.0
3/29 6:10am 198 2 G 3 54° 54% - - 37° 59.9° 53.4° - - 1017.0
3/29 6:00am 222 2 G 2 55° 51% - - 37° 59.9° 53.6° - - 1016.0
3/29 5:50am 198 1 G 2 58° 44% - - 36° 59.9° 55.5° - - 1016.0
3/29 5:40am 93 2 G 3 58° 44% - - 36° 59.9° 55.5° - - 1016.0
3/29 5:30am 92 3 G 5 58° 43% - - 36° 59.9° 55.5° - - 1016.0
3/29 5:20am 42 5 G 6 58° 45% - - 36° 59.9° 55.5° - - 1016.0
3/29 5:10am 18 3 G 5 58° 45% - - 37° 59.9° 55.5° - - 1016.0
3/29 5:00am 95 2 G 5 59° 46% - - 38° 59.9° 55.5° - - 1016.0
3/29 4:50am 111 2 G 5 57° 50% - - 38° 59.9° 55.5° - - 1016.0
3/29 4:40am 51 2 G 4 57° 49% - - 38° 59.9° 55.5° - - 1016.0
3/29 4:30am 109 2 G 3 57° 50% - - 39° 59.9° 55.5° - - 1016.0
3/29 4:20am 33 3 G 4 58° 48% - - 38° 59.9° 55.5° - - 1016.0
3/29 4:10am 60 4 G 5 57° 51% - - 39° 59.9° 55.5° - - 1016.0
3/29 4:00am 40 4 G 6 57° 51% - - 39° 59.9° 55.5° - - 1017.0
3/29 3:50am 47 3 G 6 57° 50% - - 39° 59.9° 55.5° - - 1016.0
3/29 3:40am 142 1 G 2 57° 52% - - 39° 59.9° 55.5° - - 1016.0
3/29 3:30am 132 2 G 3 56° 54% - - 39° 59.9° 55.5° - - 1017.0
3/29 3:20am 60 2 G 4 56° 53% - - 39° 59.9° 55.8° - - 1017.0
3/29 3:10am 137 2 G 4 57° 52% - - 39° 59.9° 55.8° - - 1016.0
3/29 3:00am 348 1 G 4 58° 51% - - 40° 59.9° 55.8° - - 1016.0
3/29 2:50am 350 3 G 5 57° 51% - - 39° 59.9° 55.8° - - 1017.0
3/29 2:40am 15 2 G 4 58° 47% - - 38° 59.9° 55.8° - - 1017.0
3/29 2:30am 58 2 G 5 56° 53% - - 39° 59.9° 55.8° - - 1017.0
3/29 2:20am 193 1 G 3 56° 51% - - 38° 59.9° 55.8° - - 1017.0
3/29 2:10am 183 2 G 3 57° 49% - - 38° 59.9° 56.1° - - 1017.0
3/29 2:00am 123 1 G 3 57° 49% - - 39° 59.9° 56.4° - - 1017.0
3/29 1:50am 52 1 G 3 57° 51% - - 39° 59.9° 56.4° - - 1017.0
3/29 1:40am 12 1 G 4 57° 50% - - 39° 59.9° 56.4° - - 1017.0
3/29 1:30am 183 2 G 4 57° 47% - - 37° 59.9° 56.5° - - 1017.0
3/29 1:20am 249 0 G 2 58° 44% - - 36° 59.9° 57.4° - - 1017.0
3/29 1:10am 77 3 G 5 58° 44% - - 36° 59.9° 57.4° - - 1017.0
3/29 1:00am 91 1 G 2 58° 45% - - 37° 59.9° 57.4° - - 1017.0
3/29 12:50am 157 0 G 2 58° 44% - - 36° 59.9° 57.4° - - 1017.0
3/29 12:40am 141 1 G 3 58° 44% - - 36° 59.9° 57.4° - - 1017.0
3/29 12:30am 326 1 G 3 59° 42% - - 36° 59.9° 57.7° - - 1017.0
3/29 12:20am 341 1 G 2 59° 40% - - 35° 59.9° 58.8° - - 1017.0
3/29 12:10am 276 1 G 2 59° 39% - - 34° 59.8° 59.1° - - 1017.0
3/29 12:00am 308 0 G 1 60° 37% - - 34° 70.5° 49.2° - - 1017.0
3/28 11:50pm 45 1 G 3 61° 35% - - 33° 70.5° 49.2° - - 1017.0
3/28 11:40pm 37 2 G 3 61° 35% - - 33° 70.5° 49.2° - - 1017.0
3/28 11:30pm 128 2 G 2 60° 37% - - 34° 70.5° 49.2° - - 1017.0
3/28 11:20pm 159 1 G 2 60° 39% - - 35° 70.5° 49.2° - - 1018.0
3/28 11:10pm 217 1 G 3 60° 40% - - 36° 70.5° 49.2° - - 1017.0
3/28 11:00pm 96 2 G 4 60° 38% - - 35° 70.5° 49.2° - - 1017.0
3/28 10:50pm 78 2 G 3 60° 44% - - 38° 70.5° 49.2° - - 1018.0
3/28 10:40pm 87 2 G 2 59° 60% - - 45° 70.5° 49.2° - - 1018.0
3/28 10:30pm 83 1 G 2 59° 64% - - 47° 70.5° 49.2° - - 1017.0
3/28 10:20pm 51 1 G 2 59° 66% - - 48° 70.5° 49.2° - - 1017.0
3/28 10:10pm 53 2 G 3 60° 64% - - 47° 70.5° 49.2° - - 1017.0
3/28 10:00pm 34 2 G 2 60° 56% - - 44° 70.5° 49.2° - - 1017.0
3/28 9:50pm 5 2 G 3 60° 54% - - 43° 70.5° 49.2° - - 1017.0
3/28 9:40pm 86 2 G 3 61° 44% - - 39° 70.5° 49.2° - - 1017.0
3/28 9:30pm 102 1 G 2 60° 40% - - 36° 70.5° 49.2° - - 1017.0
3/28 9:20pm 175 2 G 4 60° 45% - - 39° 70.5° 49.2° - - 1017.0
3/28 9:10pm 293 2 G 2 61° 47% - - 41° 70.5° 49.2° - - 1017.0
3/28 9:00pm 359 2 G 3 62° 41% - - 38° 70.5° 49.2° - - 1017.0
3/28 8:50pm 65 0 G 2 62° 35% - - 34° 70.5° 49.2° - - 1017.0
3/28 8:40pm 74 1 G 2 63° 34% - - 34° 70.5° 49.2° - - 1017.0
3/28 8:30pm 110 2 G 3 62° 34% - - 34° 70.5° 49.2° - - 1017.0
3/28 8:20pm 140 3 G 4 63° 34% - - 34° 70.5° 49.2° - - 1017.0
3/28 8:10pm 162 0 G 2 63° 34% - - 34° 70.5° 49.2° - - 1017.0
3/28 8:00pm 151 1 G 2 63° 35% - - 34° 70.5° 49.2° - - 1016.0
3/28 7:50pm 127 1 G 3 63° 35% - - 35° 70.5° 49.2° - - 1016.0
3/28 7:40pm 223 1 G 4 63° 35% - - 35° 70.5° 49.2° - - 1016.0
3/28 7:30pm 283 2 G 4 63° 33% - - 34° 70.5° 49.2° - - 1016.0
3/28 7:20pm 284 1 G 3 63° 34% - - 34° 70.5° 49.2° - - 1016.0
3/28 7:10pm 280 3 G 4 64° 35% - - 35° 70.5° 49.2° - - 1016.0
3/28 7:00pm 283 3 G 7 64° 36% - - 36° 70.5° 49.2° - - 1016.0
3/28 6:50pm 299 3 G 5 64° 40% - - 39° 70.5° 49.2° - - 1016.0
3/28 6:40pm 313 6 G 9 64° 40% - - 39° 70.5° 49.2° - - 1016.0
3/28 6:30pm 306 6 G 8 65° 39% - - 40° 70.5° 49.2° - - 1016.0
3/28 6:20pm 302 7 G 9 66° 38% - - 40° 70.5° 49.2° - - 1016.0
3/28 6:10pm 299 7 G 10 67° 38% - - 41° 70.5° 49.2° - - 1016.0
3/28 6:00pm 296 7 G 10 67° 40% - - 42° 70.5° 49.2° - - 1015.0
3/28 5:50pm 300 7 G 11 68° 39% - - 41° 70.5° 49.2° - - 1015.0
3/28 5:40pm 282 9 G 13 68° 37% - - 41° 70.5° 49.2° - - 1015.0
3/28 5:30pm 284 9 G 12 68° 38% - - 41° 70.5° 49.2° - - 1015.0
3/28 5:20pm 290 8 G 13 68° 37% - - 41° 70.5° 49.2° - - 1015.0
3/28 5:10pm 279 8 G 12 68° 36% - - 41° 70.5° 49.2° - - 1015.0
3/28 5:00pm 268 9 G 14 68° 36% - - 40° 70.5° 49.2° - - 1015.0
3/28 4:50pm 265 9 G 13 68° 39% - - 42° 70.5° 49.2° - - 1015.0
3/28 4:40pm 255 10 G 13 68° 41% - - 43° 70.5° 49.2° - - 1015.0
3/28 4:30pm 257 10 G 14 68° 42% - - 44° 70.5° 49.2° - - 1015.0
3/28 4:20pm 263 10 G 14 69° 36% - - 41° 70.5° 49.2° - - 1015.0
3/28 4:10pm 257 10 G 14 69° 35% - - 40° 70.5° 49.2° - - 1015.0
3/28 4:00pm 262 9 G 14 69° 36% - - 41° 70.5° 49.2° - - 1015.0
3/28 3:50pm 252 10 G 15 69° 38% - - 42° 70.5° 49.2° - - 1015.0
3/28 3:40pm 260 11 G 14 69° 39% - - 43° 70.5° 49.2° - - 1015.0
3/28 3:30pm 255 10 G 14 68° 41% - - 44° 70.5° 49.2° - - 1015.0
3/28 3:20pm 262 11 G 16 69° 40% - - 44° 70.5° 49.2° - - 1015.0
3/28 3:10pm 269 11 G 16 69° 37% - - 42° 70.5° 49.2° - - 1015.0
3/28 3:00pm 271 10 G 17 69° 35% - - 41° 70.5° 49.2° - - 1015.0
3/28 2:50pm 261 11 G 15 69° 37% - - 42° 70.2° 49.2° - - 1015.0
3/28 2:40pm 253 11 G 17 69° 43% - - 45° 70.1° 49.2° - - 1016.0
3/28 2:30pm 253 11 G 17 69° 47% - - 48° 70.1° 49.2° - - 1016.0
3/28 2:20pm 256 9 G 15 69° 48% - - 49° 70.1° 49.2° - - 1016.0
3/28 2:10pm 270 7 G 12 69° 50% - - 49° 69.5° 49.2° - - 1016.0
3/28 2:00pm 263 8 G 13 68° 53% - - 50° 69° 49.2° - - 1016.0
3/28 1:50pm 267 9 G 15 67° 56% - - 50° 69° 49.2° - - 1017.0
3/28 1:40pm 258 10 G 15 67° 56% - - 51° 69° 49.2° - - 1017.0
3/28 1:30pm 256 9 G 14 68° 53% - - 50° 69° 49.2° - - 1016.0
3/28 1:20pm 250 10 G 15 67° 54% - - 50° 69° 49.2° - - 1017.0
3/28 1:10pm 269 9 G 12 67° 54% - - 50° 69° 49.2° - - 1017.0
3/28 1:00pm 259 8 G 13 67° 53% - - 49° 69° 49.2° - - 1017.0
3/28 12:50pm 270 8 G 12 68° 52% - - 49° 69° 49.2° - - 1017.0
3/28 12:40pm 277 8 G 14 67° 51% - - 48° 69° 49.2° - - 1017.0
3/28 12:30pm 282 8 G 13 67° 51% - - 48° 69° 49.2° - - 1017.0
3/28 12:20pm 290 7 G 12 68° 47% - - 47° 69° 49.2° - - 1017.0
3/28 12:10pm 272 7 G 13 68° 46% - - 46° 69° 49.2° - - 1017.0
3/28 12:00pm 311 5 G 10 68° 39% - - 42° 69° 49.2° - - 1017.0
3/28 11:50am 311 3 G 8 68° 37% - - 40° 68.6° 49.2° - - 1017.0
3/28 11:40am 341 3 G 8 67° 39% - - 42° 67.6° 49.2° - - 1017.0
3/28 11:30am 230 3 G 9 67° 43% - - 43° 67.3° 49.2° - - 1017.0
3/28 11:20am 228 3 G 7 66° 45% - - 44° 67.2° 49.2° - - 1018.0
3/28 11:10am 277 3 G 7 65° 47% - - 44° 65.5° 49.2° - - 1018.0
3/28 11:00am 235 3 G 6 64° 49% - - 45° 64.9° 49.2° - - 1018.0
3/28 10:50am 358 3 G 7 64° 49% - - 44° 64.3° 49.2° - - 1018.0
3/28 10:40am 27 2 G 5 63° 51% - - 45° 64° 49.2° - - 1018.0
3/28 10:30am 347 3 G 7 62° 50% - - 43° 62.8° 49.2° - - 1018.0
3/28 10:20am 352 2 G 5 62° 52% - - 44° 62.5° 49.2° - - 1018.0
3/28 10:10am 329 2 G 6 61° 54% - - 44° 61.4° 49.2° - - 1018.0
3/28 10:00am 15 2 G 5 60° 57% - - 45° 61.4° 49.2° - - 1018.0
3/28 9:50am 360 2 G 5 59° 59% - - 45° 59.7° 49.2° - - 1018.0
3/28 9:40am 331 2 G 4 58° 61% - - 45° 58.9° 49.2° - - 1018.0
3/28 9:30am 7 2 G 4 58° 61% - - 45° 58.4° 49.2° - - 1018.0
3/28 9:20am 223 2 G 3 57° 68% - - 47° 57.8° 49.2° - - 1018.0
3/28 9:10am 83 1 G 4 56° 66% - - 45° 57.3° 49.2° - - 1018.0
3/28 9:00am 59 3 G 5 55° 73% - - 47° 55.9° 49.2° - - 1018.0
3/28 8:50am 77 2 G 4 55° 75% - - 47° 55.9° 49.2° - - 1018.0
3/28 8:40am 245 2 G 6 54° 76% - - 47° 55.9° 49.2° - - 1018.0
3/28 8:30am 316 2 G 3 53° 82% - - 48° 55.9° 49.2° - - 1018.0
3/28 8:20am 34 4 G 6 52° 86% - - 48° 55.9° 49.2° - - 1017.0
3/28 8:10am 46 3 G 6 52° 85% - - 48° 55.9° 49.2° - - 1017.0
3/28 8:00am 142 3 G 6 51° 88% - - 48° 55.9° 49.2° - - 1018.0
3/28 7:50am 209 2 G 5 50° 88% - - 47° 55.9° 49.2° - - 1018.0
3/28 7:40am 12 4 G 7 50° 88% - - 46° 55.9° 49.2° - - 1017.0
3/28 7:30am 92 4 G 6 50° 91% - - 48° 55.9° 49.2° - - 1017.0
3/28 7:20am 136 4 G 7 50° 90% - - 47° 55.9° 49.2° - - 1017.0
3/28 7:10am 286 2 G 5 50° 89% - - 47° 55.9° 49.8° - - 1017.0
3/28 7:00am 45 5 G 10 51° 84% - - 46° 55.9° 49.8° - - 1017.0
3/28 6:50am 74 9 G 11 52° 84% - - 48° 55.9° 50° - - 1017.0
3/28 6:40am 92 4 G 6 52° 88% - - 48° 55.9° 50° - - 1017.0
3/28 6:30am 107 5 G 8 51° 89% - - 48° 55.9° 50° - - 1017.0
3/28 6:20am 104 4 G 7 52° 89% - - 48° 55.9° 50.5° - - 1017.0
3/28 6:10am 132 2 G 4 51° 86% - - 47° 55.9° 50.5° - - 1017.0
3/28 6:00am 49 5 G 8 52° 85% - - 47° 55.9° 51° - - 1017.0